sensor_id;sensor_type;location;lat;lon;timestamp;P1;durP1;ratioP1;P2;durP2;ratioP2
55633;SDS011;41504;53.162;6.788;2024-03-02T00:00:26;6.35;;;3.45;;
55633;SDS011;41504;53.162;6.788;2024-03-02T00:02:52;6.57;;;3.72;;
55633;SDS011;41504;53.162;6.788;2024-03-02T00:05:18;6.22;;;3.67;;
55633;SDS011;41504;53.162;6.788;2024-03-02T00:07:46;7.25;;;3.70;;
55633;SDS011;41504;53.162;6.788;2024-03-02T00:10:19;6.93;;;3.90;;
55633;SDS011;41504;53.162;6.788;2024-03-02T00:12:48;6.07;;;3.72;;
55633;SDS011;41504;53.162;6.788;2024-03-02T00:18:11;6.78;;;3.72;;
55633;SDS011;41504;53.162;6.788;2024-03-02T00:20:39;6.50;;;3.78;;
55633;SDS011;41504;53.162;6.788;2024-03-02T00:23:06;7.03;;;4.18;;
55633;SDS011;41504;53.162;6.788;2024-03-02T00:30:58;7.43;;;4.55;;
55633;SDS011;41504;53.162;6.788;2024-03-02T00:33:28;7.35;;;4.07;;
55633;SDS011;41504;53.162;6.788;2024-03-02T00:36:03;8.35;;;4.78;;
55633;SDS011;41504;53.162;6.788;2024-03-02T00:38:32;6.70;;;4.50;;
55633;SDS011;41504;53.162;6.788;2024-03-02T00:41:00;7.13;;;4.10;;
55633;SDS011;41504;53.162;6.788;2024-03-02T00:46:09;10.00;;;5.00;;
55633;SDS011;41504;53.162;6.788;2024-03-02T00:48:39;7.70;;;5.00;;
55633;SDS011;41504;53.162;6.788;2024-03-02T00:51:24;9.48;;;4.78;;
55633;SDS011;41504;53.162;6.788;2024-03-02T00:53:55;7.57;;;4.88;;
55633;SDS011;41504;53.162;6.788;2024-03-02T00:56:23;7.43;;;5.00;;
55633;SDS011;41504;53.162;6.788;2024-03-02T00:58:50;8.68;;;4.93;;
55633;SDS011;41504;53.162;6.788;2024-03-02T01:01:16;7.45;;;4.55;;
55633;SDS011;41504;53.162;6.788;2024-03-02T01:03:42;8.30;;;4.82;;
55633;SDS011;41504;53.162;6.788;2024-03-02T01:06:08;9.48;;;5.70;;
55633;SDS011;41504;53.162;6.788;2024-03-02T01:08:35;9.25;;;5.40;;
55633;SDS011;41504;53.162;6.788;2024-03-02T01:11:01;8.23;;;5.00;;
55633;SDS011;41504;53.162;6.788;2024-03-02T01:13:27;8.32;;;5.03;;
55633;SDS011;41504;53.162;6.788;2024-03-02T01:15:53;10.35;;;5.00;;
55633;SDS011;41504;53.162;6.788;2024-03-02T01:18:19;8.82;;;5.22;;
55633;SDS011;41504;53.162;6.788;2024-03-02T01:20:44;8.20;;;4.90;;
55633;SDS011;41504;53.162;6.788;2024-03-02T01:23:10;9.55;;;5.00;;
55633;SDS011;41504;53.162;6.788;2024-03-02T01:25:39;8.20;;;5.13;;
55633;SDS011;41504;53.162;6.788;2024-03-02T01:28:05;8.05;;;5.03;;
55633;SDS011;41504;53.162;6.788;2024-03-02T01:30:31;9.32;;;5.28;;
55633;SDS011;41504;53.162;6.788;2024-03-02T01:32:57;8.48;;;5.15;;
55633;SDS011;41504;53.162;6.788;2024-03-02T01:35:24;8.18;;;5.53;;
55633;SDS011;41504;53.162;6.788;2024-03-02T01:37:51;7.22;;;5.10;;
55633;SDS011;41504;53.162;6.788;2024-03-02T01:40:17;8.57;;;4.85;;
55633;SDS011;41504;53.162;6.788;2024-03-02T01:42:43;8.52;;;4.90;;
55633;SDS011;41504;53.162;6.788;2024-03-02T01:45:09;7.82;;;4.82;;
55633;SDS011;41504;53.162;6.788;2024-03-02T01:47:35;9.00;;;5.10;;
55633;SDS011;41504;53.162;6.788;2024-03-02T01:50:00;7.95;;;4.88;;
55633;SDS011;41504;53.162;6.788;2024-03-02T01:52:27;8.27;;;5.43;;
55633;SDS011;41504;53.162;6.788;2024-03-02T01:54:53;8.70;;;5.10;;
55633;SDS011;41504;53.162;6.788;2024-03-02T01:57:19;7.53;;;4.90;;
55633;SDS011;41504;53.162;6.788;2024-03-02T01:59:45;7.78;;;5.28;;
55633;SDS011;41504;53.162;6.788;2024-03-02T02:02:13;8.90;;;5.32;;
55633;SDS011;41504;53.162;6.788;2024-03-02T02:04:39;8.00;;;5.30;;
55633;SDS011;41504;53.162;6.788;2024-03-02T02:07:05;7.15;;;4.60;;
55633;SDS011;41504;53.162;6.788;2024-03-02T02:09:31;8.70;;;5.00;;
55633;SDS011;41504;53.162;6.788;2024-03-02T02:11:57;8.77;;;4.93;;
55633;SDS011;41504;53.162;6.788;2024-03-02T02:14:24;7.78;;;4.63;;
55633;SDS011;41504;53.162;6.788;2024-03-02T02:16:50;8.82;;;5.05;;
55633;SDS011;41504;53.162;6.788;2024-03-02T02:19:15;7.85;;;4.82;;
55633;SDS011;41504;53.162;6.788;2024-03-02T02:21:44;7.90;;;4.22;;
55633;SDS011;41504;53.162;6.788;2024-03-02T02:24:10;7.50;;;4.40;;
55633;SDS011;41504;53.162;6.788;2024-03-02T02:26:38;6.70;;;4.30;;
55633;SDS011;41504;53.162;6.788;2024-03-02T02:29:04;7.63;;;4.75;;
55633;SDS011;41504;53.162;6.788;2024-03-02T02:31:36;8.07;;;4.47;;
55633;SDS011;41504;53.162;6.788;2024-03-02T02:34:03;8.50;;;4.88;;
55633;SDS011;41504;53.162;6.788;2024-03-02T02:36:28;7.35;;;4.47;;
55633;SDS011;41504;53.162;6.788;2024-03-02T02:38:54;9.48;;;4.82;;
55633;SDS011;41504;53.162;6.788;2024-03-02T02:41:21;7.50;;;4.53;;
55633;SDS011;41504;53.162;6.788;2024-03-02T02:43:46;7.25;;;4.43;;
55633;SDS011;41504;53.162;6.788;2024-03-02T02:46:12;6.97;;;4.28;;
55633;SDS011;41504;53.162;6.788;2024-03-02T02:48:38;8.25;;;4.38;;
55633;SDS011;41504;53.162;6.788;2024-03-02T02:51:03;8.48;;;4.15;;
55633;SDS011;41504;53.162;6.788;2024-03-02T02:53:32;7.05;;;4.10;;
55633;SDS011;41504;53.162;6.788;2024-03-02T02:56:05;7.20;;;3.95;;
55633;SDS011;41504;53.162;6.788;2024-03-02T02:58:34;7.55;;;4.05;;
55633;SDS011;41504;53.162;6.788;2024-03-02T03:00:59;6.78;;;3.88;;
55633;SDS011;41504;53.162;6.788;2024-03-02T03:03:28;7.18;;;4.13;;
55633;SDS011;41504;53.162;6.788;2024-03-02T03:05:57;6.60;;;3.80;;
55633;SDS011;41504;53.162;6.788;2024-03-02T03:08:22;6.72;;;3.97;;
55633;SDS011;41504;53.162;6.788;2024-03-02T03:10:48;7.47;;;3.60;;
55633;SDS011;41504;53.162;6.788;2024-03-02T03:13:16;6.70;;;3.53;;
55633;SDS011;41504;53.162;6.788;2024-03-02T03:15:43;7.07;;;3.40;;
55633;SDS011;41504;53.162;6.788;2024-03-02T03:18:08;6.70;;;3.38;;
55633;SDS011;41504;53.162;6.788;2024-03-02T03:20:37;6.78;;;3.65;;
55633;SDS011;41504;53.162;6.788;2024-03-02T03:23:02;6.43;;;3.58;;
55633;SDS011;41504;53.162;6.788;2024-03-02T03:25:29;5.50;;;3.10;;
55633;SDS011;41504;53.162;6.788;2024-03-02T03:27:58;6.32;;;3.58;;
55633;SDS011;41504;53.162;6.788;2024-03-02T03:30:24;7.57;;;3.15;;
55633;SDS011;41504;53.162;6.788;2024-03-02T03:32:49;7.07;;;3.10;;
55633;SDS011;41504;53.162;6.788;2024-03-02T03:35:15;6.32;;;3.30;;
55633;SDS011;41504;53.162;6.788;2024-03-02T03:37:41;5.97;;;3.15;;
55633;SDS011;41504;53.162;6.788;2024-03-02T03:40:07;6.07;;;3.25;;
55633;SDS011;41504;53.162;6.788;2024-03-02T03:42:36;6.00;;;3.08;;
55633;SDS011;41504;53.162;6.788;2024-03-02T03:45:02;5.57;;;3.03;;
55633;SDS011;41504;53.162;6.788;2024-03-02T03:47:28;6.13;;;2.90;;
55633;SDS011;41504;53.162;6.788;2024-03-02T03:49:55;5.03;;;2.80;;
55633;SDS011;41504;53.162;6.788;2024-03-02T03:52:21;5.50;;;3.22;;
55633;SDS011;41504;53.162;6.788;2024-03-02T03:54:47;5.68;;;2.80;;
55633;SDS011;41504;53.162;6.788;2024-03-02T03:57:13;6.13;;;3.03;;
55633;SDS011;41504;53.162;6.788;2024-03-02T03:59:38;6.30;;;3.03;;
55633;SDS011;41504;53.162;6.788;2024-03-02T04:02:04;5.93;;;2.97;;
55633;SDS011;41504;53.162;6.788;2024-03-02T04:04:30;5.47;;;2.72;;
55633;SDS011;41504;53.162;6.788;2024-03-02T04:06:55;6.35;;;2.50;;
55633;SDS011;41504;53.162;6.788;2024-03-02T04:09:21;6.63;;;2.90;;
55633;SDS011;41504;53.162;6.788;2024-03-02T04:11:47;6.90;;;2.63;;
55633;SDS011;41504;53.162;6.788;2024-03-02T04:14:12;4.90;;;2.72;;
55633;SDS011;41504;53.162;6.788;2024-03-02T04:16:38;6.10;;;2.92;;
55633;SDS011;41504;53.162;6.788;2024-03-02T04:19:04;5.45;;;2.60;;
55633;SDS011;41504;53.162;6.788;2024-03-02T04:21:30;6.63;;;3.17;;
55633;SDS011;41504;53.162;6.788;2024-03-02T04:23:56;5.38;;;3.05;;
55633;SDS011;41504;53.162;6.788;2024-03-02T04:26:25;5.38;;;2.92;;
55633;SDS011;41504;53.162;6.788;2024-03-02T04:28:53;6.43;;;2.60;;
55633;SDS011;41504;53.162;6.788;2024-03-02T04:31:19;5.25;;;2.90;;
55633;SDS011;41504;53.162;6.788;2024-03-02T04:33:45;5.45;;;2.67;;
55633;SDS011;41504;53.162;6.788;2024-03-02T04:36:11;5.57;;;2.80;;
55633;SDS011;41504;53.162;6.788;2024-03-02T04:38:40;7.03;;;2.95;;
55633;SDS011;41504;53.162;6.788;2024-03-02T04:41:06;5.28;;;2.53;;
55633;SDS011;41504;53.162;6.788;2024-03-02T04:43:32;7.25;;;3.05;;
55633;SDS011;41504;53.162;6.788;2024-03-02T04:45:58;5.18;;;3.05;;
55633;SDS011;41504;53.162;6.788;2024-03-02T04:48:24;6.85;;;3.28;;
55633;SDS011;41504;53.162;6.788;2024-03-02T04:50:50;6.30;;;2.88;;
55633;SDS011;41504;53.162;6.788;2024-03-02T04:53:16;5.47;;;2.92;;
55633;SDS011;41504;53.162;6.788;2024-03-02T04:55:42;5.97;;;2.88;;
55633;SDS011;41504;53.162;6.788;2024-03-02T04:58:07;5.72;;;2.88;;
55633;SDS011;41504;53.162;6.788;2024-03-02T05:00:33;4.47;;;2.63;;
55633;SDS011;41504;53.162;6.788;2024-03-02T05:02:59;5.45;;;2.90;;
55633;SDS011;41504;53.162;6.788;2024-03-02T05:05:25;6.47;;;3.13;;
55633;SDS011;41504;53.162;6.788;2024-03-02T05:07:51;5.68;;;2.88;;
55633;SDS011;41504;53.162;6.788;2024-03-02T05:10:17;5.95;;;2.90;;
55633;SDS011;41504;53.162;6.788;2024-03-02T05:12:43;5.32;;;2.95;;
55633;SDS011;41504;53.162;6.788;2024-03-02T05:15:15;6.13;;;2.90;;
55633;SDS011;41504;53.162;6.788;2024-03-02T05:17:41;7.97;;;3.35;;
55633;SDS011;41504;53.162;6.788;2024-03-02T05:20:10;5.68;;;2.90;;
55633;SDS011;41504;53.162;6.788;2024-03-02T05:22:37;6.38;;;3.03;;
55633;SDS011;41504;53.162;6.788;2024-03-02T05:25:03;5.20;;;3.00;;
55633;SDS011;41504;53.162;6.788;2024-03-02T05:27:29;6.15;;;2.95;;
55633;SDS011;41504;53.162;6.788;2024-03-02T05:29:56;6.85;;;3.63;;
55633;SDS011;41504;53.162;6.788;2024-03-02T05:32:22;6.35;;;3.10;;
55633;SDS011;41504;53.162;6.788;2024-03-02T05:34:48;5.88;;;2.90;;
55633;SDS011;41504;53.162;6.788;2024-03-02T05:37:15;5.97;;;3.15;;
55633;SDS011;41504;53.162;6.788;2024-03-02T05:39:42;6.82;;;3.17;;
55633;SDS011;41504;53.162;6.788;2024-03-02T05:42:08;5.35;;;2.92;;
55633;SDS011;41504;53.162;6.788;2024-03-02T05:44:35;6.28;;;3.03;;
55633;SDS011;41504;53.162;6.788;2024-03-02T05:47:01;6.03;;;3.25;;
55633;SDS011;41504;53.162;6.788;2024-03-02T05:49:26;6.75;;;3.10;;
55633;SDS011;41504;53.162;6.788;2024-03-02T05:51:52;6.63;;;3.22;;
55633;SDS011;41504;53.162;6.788;2024-03-02T05:54:18;6.90;;;3.20;;
55633;SDS011;41504;53.162;6.788;2024-03-02T05:56:43;5.30;;;3.08;;
55633;SDS011;41504;53.162;6.788;2024-03-02T05:59:09;5.93;;;3.20;;
55633;SDS011;41504;53.162;6.788;2024-03-02T06:01:47;5.35;;;3.00;;
55633;SDS011;41504;53.162;6.788;2024-03-02T06:04:15;5.78;;;3.10;;
55633;SDS011;41504;53.162;6.788;2024-03-02T06:06:41;6.28;;;3.40;;
55633;SDS011;41504;53.162;6.788;2024-03-02T06:09:07;5.90;;;3.30;;
55633;SDS011;41504;53.162;6.788;2024-03-02T06:11:36;6.88;;;3.47;;
55633;SDS011;41504;53.162;6.788;2024-03-02T06:14:03;7.35;;;3.50;;
55633;SDS011;41504;53.162;6.788;2024-03-02T06:16:30;6.20;;;3.25;;
55633;SDS011;41504;53.162;6.788;2024-03-02T06:18:56;5.22;;;3.00;;
55633;SDS011;41504;53.162;6.788;2024-03-02T06:21:25;6.72;;;3.15;;
55633;SDS011;41504;53.162;6.788;2024-03-02T06:23:51;5.47;;;3.20;;
55633;SDS011;41504;53.162;6.788;2024-03-02T06:26:16;7.75;;;3.58;;
55633;SDS011;41504;53.162;6.788;2024-03-02T06:28:43;7.43;;;3.88;;
55633;SDS011;41504;53.162;6.788;2024-03-02T06:31:09;8.10;;;3.38;;
55633;SDS011;41504;53.162;6.788;2024-03-02T06:33:35;6.22;;;3.50;;
55633;SDS011;41504;53.162;6.788;2024-03-02T06:36:01;6.13;;;3.70;;
55633;SDS011;41504;53.162;6.788;2024-03-02T06:38:27;6.18;;;3.30;;
55633;SDS011;41504;53.162;6.788;2024-03-02T06:40:53;5.68;;;3.08;;
55633;SDS011;41504;53.162;6.788;2024-03-02T06:43:18;7.13;;;3.47;;
55633;SDS011;41504;53.162;6.788;2024-03-02T06:45:48;5.97;;;3.25;;
55633;SDS011;41504;53.162;6.788;2024-03-02T06:48:15;6.57;;;3.70;;
55633;SDS011;41504;53.162;6.788;2024-03-02T06:50:45;6.82;;;3.53;;
55633;SDS011;41504;53.162;6.788;2024-03-02T06:53:12;5.63;;;3.22;;
55633;SDS011;41504;53.162;6.788;2024-03-02T06:55:38;7.32;;;3.80;;
55633;SDS011;41504;53.162;6.788;2024-03-02T06:58:03;6.97;;;3.47;;
55633;SDS011;41504;53.162;6.788;2024-03-02T07:00:30;6.18;;;3.40;;
55633;SDS011;41504;53.162;6.788;2024-03-02T07:02:55;6.18;;;3.45;;
55633;SDS011;41504;53.162;6.788;2024-03-02T07:05:21;6.57;;;3.40;;
55633;SDS011;41504;53.162;6.788;2024-03-02T07:07:47;6.43;;;3.53;;
55633;SDS011;41504;53.162;6.788;2024-03-02T07:10:12;6.43;;;3.58;;
55633;SDS011;41504;53.162;6.788;2024-03-02T07:12:38;6.38;;;3.40;;
55633;SDS011;41504;53.162;6.788;2024-03-02T07:15:04;7.45;;;3.58;;
55633;SDS011;41504;53.162;6.788;2024-03-02T07:17:31;6.88;;;3.38;;
55633;SDS011;41504;53.162;6.788;2024-03-02T07:19:57;5.70;;;3.08;;
55633;SDS011;41504;53.162;6.788;2024-03-02T07:22:22;7.53;;;3.50;;
55633;SDS011;41504;53.162;6.788;2024-03-02T07:24:48;5.63;;;3.30;;
55633;SDS011;41504;53.162;6.788;2024-03-02T07:27:15;5.95;;;3.40;;
55633;SDS011;41504;53.162;6.788;2024-03-02T07:29:41;6.90;;;3.75;;
55633;SDS011;41504;53.162;6.788;2024-03-02T07:32:08;5.65;;;3.35;;
55633;SDS011;41504;53.162;6.788;2024-03-02T07:34:34;6.20;;;3.47;;
55633;SDS011;41504;53.162;6.788;2024-03-02T07:37:00;5.88;;;3.28;;
55633;SDS011;41504;53.162;6.788;2024-03-02T07:39:26;5.97;;;3.50;;
55633;SDS011;41504;53.162;6.788;2024-03-02T07:41:52;6.57;;;4.10;;
55633;SDS011;41504;53.162;6.788;2024-03-02T07:44:18;5.82;;;3.50;;
55633;SDS011;41504;53.162;6.788;2024-03-02T07:46:45;7.75;;;3.50;;
55633;SDS011;41504;53.162;6.788;2024-03-02T07:49:11;6.22;;;2.80;;
55633;SDS011;41504;53.162;6.788;2024-03-02T07:51:41;6.85;;;3.30;;
55633;SDS011;41504;53.162;6.788;2024-03-02T07:54:07;6.18;;;3.08;;
55633;SDS011;41504;53.162;6.788;2024-03-02T07:56:33;7.03;;;3.55;;
55633;SDS011;41504;53.162;6.788;2024-03-02T07:58:59;6.72;;;3.17;;
55633;SDS011;41504;53.162;6.788;2024-03-02T08:01:27;6.32;;;3.33;;
55633;SDS011;41504;53.162;6.788;2024-03-02T08:04:01;6.60;;;3.38;;
55633;SDS011;41504;53.162;6.788;2024-03-02T08:06:31;6.97;;;3.45;;
55633;SDS011;41504;53.162;6.788;2024-03-02T08:08:57;7.50;;;3.47;;
55633;SDS011;41504;53.162;6.788;2024-03-02T08:11:23;6.90;;;3.00;;
55633;SDS011;41504;53.162;6.788;2024-03-02T08:13:49;5.22;;;2.80;;
55633;SDS011;41504;53.162;6.788;2024-03-02T08:16:15;6.70;;;3.30;;
55633;SDS011;41504;53.162;6.788;2024-03-02T08:18:43;5.75;;;2.90;;
55633;SDS011;41504;53.162;6.788;2024-03-02T08:21:09;7.05;;;3.22;;
55633;SDS011;41504;53.162;6.788;2024-03-02T08:23:35;5.18;;;2.78;;
55633;SDS011;41504;53.162;6.788;2024-03-02T08:26:02;5.55;;;2.80;;
55633;SDS011;41504;53.162;6.788;2024-03-02T08:28:29;5.05;;;2.50;;
55633;SDS011;41504;53.162;6.788;2024-03-02T08:30:55;5.70;;;2.88;;
55633;SDS011;41504;53.162;6.788;2024-03-02T08:33:21;5.25;;;2.60;;
55633;SDS011;41504;53.162;6.788;2024-03-02T08:35:47;4.22;;;2.13;;
55633;SDS011;41504;53.162;6.788;2024-03-02T08:38:13;5.80;;;2.33;;
55633;SDS011;41504;53.162;6.788;2024-03-02T08:40:39;5.00;;;2.25;;
55633;SDS011;41504;53.162;6.788;2024-03-02T08:43:04;5.68;;;2.45;;
55633;SDS011;41504;53.162;6.788;2024-03-02T08:45:32;5.53;;;2.50;;
55633;SDS011;41504;53.162;6.788;2024-03-02T08:47:59;4.88;;;2.25;;
55633;SDS011;41504;53.162;6.788;2024-03-02T08:50:25;4.50;;;2.10;;
55633;SDS011;41504;53.162;6.788;2024-03-02T08:52:51;4.18;;;2.17;;
55633;SDS011;41504;53.162;6.788;2024-03-02T08:55:17;5.57;;;2.50;;
55633;SDS011;41504;53.162;6.788;2024-03-02T08:57:43;4.20;;;2.20;;
55633;SDS011;41504;53.162;6.788;2024-03-02T09:00:08;4.18;;;2.17;;
55633;SDS011;41504;53.162;6.788;2024-03-02T09:02:35;6.68;;;2.50;;
55633;SDS011;41504;53.162;6.788;2024-03-02T09:05:01;5.40;;;2.50;;
55633;SDS011;41504;53.162;6.788;2024-03-02T09:07:27;5.28;;;2.28;;
55633;SDS011;41504;53.162;6.788;2024-03-02T09:09:53;5.18;;;2.40;;
55633;SDS011;41504;53.162;6.788;2024-03-02T09:12:19;4.45;;;1.92;;
55633;SDS011;41504;53.162;6.788;2024-03-02T09:14:45;5.65;;;2.00;;
55633;SDS011;41504;53.162;6.788;2024-03-02T09:17:12;5.35;;;1.80;;
55633;SDS011;41504;53.162;6.788;2024-03-02T09:19:38;4.25;;;1.75;;
55633;SDS011;41504;53.162;6.788;2024-03-02T09:22:04;4.68;;;1.67;;
55633;SDS011;41504;53.162;6.788;2024-03-02T09:24:31;4.80;;;1.60;;
55633;SDS011;41504;53.162;6.788;2024-03-02T09:26:58;3.42;;;1.60;;
55633;SDS011;41504;53.162;6.788;2024-03-02T09:29:24;3.80;;;1.60;;
55633;SDS011;41504;53.162;6.788;2024-03-02T09:31:50;3.35;;;1.50;;
55633;SDS011;41504;53.162;6.788;2024-03-02T09:34:16;3.53;;;1.52;;
55633;SDS011;41504;53.162;6.788;2024-03-02T09:36:42;5.18;;;1.80;;
55633;SDS011;41504;53.162;6.788;2024-03-02T09:39:08;2.33;;;1.20;;
55633;SDS011;41504;53.162;6.788;2024-03-02T09:41:35;3.83;;;1.40;;
55633;SDS011;41504;53.162;6.788;2024-03-02T09:44:02;5.05;;;1.70;;
55633;SDS011;41504;53.162;6.788;2024-03-02T09:46:28;3.28;;;1.50;;
55633;SDS011;41504;53.162;6.788;2024-03-02T09:48:54;4.50;;;1.70;;
55633;SDS011;41504;53.162;6.788;2024-03-02T09:51:19;4.53;;;1.70;;
55633;SDS011;41504;53.162;6.788;2024-03-02T09:53:45;3.67;;;1.70;;
55633;SDS011;41504;53.162;6.788;2024-03-02T09:56:12;5.57;;;1.60;;
55633;SDS011;41504;53.162;6.788;2024-03-02T09:58:38;4.75;;;1.65;;
55633;SDS011;41504;53.162;6.788;2024-03-02T10:01:05;4.65;;;1.70;;
55633;SDS011;41504;53.162;6.788;2024-03-02T10:03:31;2.97;;;1.40;;
55633;SDS011;41504;53.162;6.788;2024-03-02T10:08:44;4.00;;;1.67;;
55633;SDS011;41504;53.162;6.788;2024-03-02T10:11:10;5.32;;;1.70;;
55633;SDS011;41504;53.162;6.788;2024-03-02T10:13:36;3.75;;;1.77;;
55633;SDS011;41504;53.162;6.788;2024-03-02T10:16:11;4.88;;;1.95;;
55633;SDS011;41504;53.162;6.788;2024-03-02T10:18:37;4.35;;;2.10;;
55633;SDS011;41504;53.162;6.788;2024-03-02T10:21:12;5.45;;;2.33;;
55633;SDS011;41504;53.162;6.788;2024-03-02T10:23:39;5.03;;;2.40;;
55633;SDS011;41504;53.162;6.788;2024-03-02T10:26:17;4.15;;;1.67;;
55633;SDS011;41504;53.162;6.788;2024-03-02T10:28:46;4.03;;;1.67;;
55633;SDS011;41504;53.162;6.788;2024-03-02T10:31:12;3.33;;;1.50;;
55633;SDS011;41504;53.162;6.788;2024-03-02T10:33:39;3.15;;;1.40;;
55633;SDS011;41504;53.162;6.788;2024-03-02T10:36:05;2.95;;;1.33;;
55633;SDS011;41504;53.162;6.788;2024-03-02T10:38:31;3.05;;;1.20;;
55633;SDS011;41504;53.162;6.788;2024-03-02T10:40:57;2.67;;;1.20;;
55633;SDS011;41504;53.162;6.788;2024-03-02T10:43:24;1.88;;;1.10;;
55633;SDS011;41504;53.162;6.788;2024-03-02T10:45:51;3.30;;;1.40;;
55633;SDS011;41504;53.162;6.788;2024-03-02T10:48:19;4.93;;;1.70;;
55633;SDS011;41504;53.162;6.788;2024-03-02T10:50:46;3.17;;;1.40;;
55633;SDS011;41504;53.162;6.788;2024-03-02T10:53:12;5.93;;;1.60;;
55633;SDS011;41504;53.162;6.788;2024-03-02T10:55:38;2.80;;;1.30;;
55633;SDS011;41504;53.162;6.788;2024-03-02T10:58:04;3.65;;;1.48;;
55633;SDS011;41504;53.162;6.788;2024-03-02T11:00:33;3.50;;;1.20;;
55633;SDS011;41504;53.162;6.788;2024-03-02T11:03:06;4.40;;;1.58;;
55633;SDS011;41504;53.162;6.788;2024-03-02T11:05:43;5.60;;;1.45;;
55633;SDS011;41504;53.162;6.788;2024-03-02T11:08:13;5.22;;;2.00;;
55633;SDS011;41504;53.162;6.788;2024-03-02T11:10:51;3.20;;;1.45;;
55633;SDS011;41504;53.162;6.788;2024-03-02T11:13:24;5.45;;;1.60;;
55633;SDS011;41504;53.162;6.788;2024-03-02T11:16:02;3.72;;;1.70;;
55633;SDS011;41504;53.162;6.788;2024-03-02T11:18:31;3.60;;;1.77;;
55633;SDS011;41504;53.162;6.788;2024-03-02T11:20:58;4.72;;;2.08;;
55633;SDS011;41504;53.162;6.788;2024-03-02T11:23:34;4.20;;;1.90;;
55633;SDS011;41504;53.162;6.788;2024-03-02T11:29:06;4.82;;;2.28;;
55633;SDS011;41504;53.162;6.788;2024-03-02T11:34:29;5.18;;;2.25;;
55633;SDS011;41504;53.162;6.788;2024-03-02T11:37:03;4.47;;;2.22;;
55633;SDS011;41504;53.162;6.788;2024-03-02T11:39:29;5.65;;;3.05;;
55633;SDS011;41504;53.162;6.788;2024-03-02T11:41:55;5.22;;;2.55;;
55633;SDS011;41504;53.162;6.788;2024-03-02T11:44:22;5.82;;;2.65;;
55633;SDS011;41504;53.162;6.788;2024-03-02T11:46:58;4.85;;;2.75;;
55633;SDS011;41504;53.162;6.788;2024-03-02T11:52:07;5.68;;;3.15;;
55633;SDS011;41504;53.162;6.788;2024-03-02T11:54:35;4.55;;;2.90;;
55633;SDS011;41504;53.162;6.788;2024-03-02T11:57:04;6.22;;;3.28;;
55633;SDS011;41504;53.162;6.788;2024-03-02T11:59:31;4.93;;;2.92;;
55633;SDS011;41504;53.162;6.788;2024-03-02T12:01:57;5.40;;;3.17;;
55633;SDS011;41504;53.162;6.788;2024-03-02T12:04:24;6.30;;;2.95;;
55633;SDS011;41504;53.162;6.788;2024-03-02T12:06:55;5.93;;;2.80;;
55633;SDS011;41504;53.162;6.788;2024-03-02T12:09:27;5.32;;;2.72;;
55633;SDS011;41504;53.162;6.788;2024-03-02T12:12:05;5.25;;;2.67;;
55633;SDS011;41504;53.162;6.788;2024-03-02T12:14:33;5.10;;;2.47;;
55633;SDS011;41504;53.162;6.788;2024-03-02T12:16:59;6.78;;;3.00;;
55633;SDS011;41504;53.162;6.788;2024-03-02T12:19:26;4.85;;;2.47;;
55633;SDS011;41504;53.162;6.788;2024-03-02T12:21:52;5.68;;;2.50;;
55633;SDS011;41504;53.162;6.788;2024-03-02T12:24:20;5.10;;;2.40;;
55633;SDS011;41504;53.162;6.788;2024-03-02T12:26:46;5.45;;;2.80;;
55633;SDS011;41504;53.162;6.788;2024-03-02T12:29:13;7.18;;;3.42;;
55633;SDS011;41504;53.162;6.788;2024-03-02T12:31:40;7.82;;;3.05;;
55633;SDS011;41504;53.162;6.788;2024-03-02T12:34:07;5.20;;;2.90;;
55633;SDS011;41504;53.162;6.788;2024-03-02T12:36:37;5.53;;;3.13;;
55633;SDS011;41504;53.162;6.788;2024-03-02T12:41:38;5.78;;;3.75;;
55633;SDS011;41504;53.162;6.788;2024-03-02T12:44:05;6.03;;;3.90;;
55633;SDS011;41504;53.162;6.788;2024-03-02T12:46:34;5.10;;;3.50;;
55633;SDS011;41504;53.162;6.788;2024-03-02T12:49:08;5.28;;;3.30;;
55633;SDS011;41504;53.162;6.788;2024-03-02T12:51:36;6.38;;;3.47;;
55633;SDS011;41504;53.162;6.788;2024-03-02T12:54:02;5.78;;;3.97;;
55633;SDS011;41504;53.162;6.788;2024-03-02T12:56:30;6.50;;;3.97;;
55633;SDS011;41504;53.162;6.788;2024-03-02T12:58:56;6.18;;;3.63;;
55633;SDS011;41504;53.162;6.788;2024-03-02T13:01:23;7.22;;;3.85;;
55633;SDS011;41504;53.162;6.788;2024-03-02T13:03:49;7.63;;;3.90;;
55633;SDS011;41504;53.162;6.788;2024-03-02T13:06:16;5.82;;;3.80;;
55633;SDS011;41504;53.162;6.788;2024-03-02T13:08:43;6.35;;;3.80;;
55633;SDS011;41504;53.162;6.788;2024-03-02T13:11:10;5.85;;;3.67;;
55633;SDS011;41504;53.162;6.788;2024-03-02T13:13:35;5.88;;;3.47;;
55633;SDS011;41504;53.162;6.788;2024-03-02T13:16:03;5.93;;;3.50;;
55633;SDS011;41504;53.162;6.788;2024-03-02T13:18:30;5.15;;;3.08;;
55633;SDS011;41504;53.162;6.788;2024-03-02T13:20:56;6.10;;;3.40;;
55633;SDS011;41504;53.162;6.788;2024-03-02T13:23:22;5.00;;;3.22;;
55633;SDS011;41504;53.162;6.788;2024-03-02T13:25:47;6.13;;;3.45;;
55633;SDS011;41504;53.162;6.788;2024-03-02T13:28:13;6.47;;;3.38;;
55633;SDS011;41504;53.162;6.788;2024-03-02T13:30:39;5.93;;;3.50;;
55633;SDS011;41504;53.162;6.788;2024-03-02T13:33:04;5.47;;;3.28;;
55633;SDS011;41504;53.162;6.788;2024-03-02T13:35:30;6.10;;;3.25;;
55633;SDS011;41504;53.162;6.788;2024-03-02T13:37:56;5.97;;;3.08;;
55633;SDS011;41504;53.162;6.788;2024-03-02T13:40:22;6.75;;;3.30;;
55633;SDS011;41504;53.162;6.788;2024-03-02T13:42:48;6.53;;;3.20;;
55633;SDS011;41504;53.162;6.788;2024-03-02T13:45:16;6.07;;;3.30;;
55633;SDS011;41504;53.162;6.788;2024-03-02T13:47:43;6.05;;;3.33;;
55633;SDS011;41504;53.162;6.788;2024-03-02T13:50:09;5.88;;;2.65;;
55633;SDS011;41504;53.162;6.788;2024-03-02T13:52:35;5.43;;;2.80;;
55633;SDS011;41504;53.162;6.788;2024-03-02T13:55:01;4.95;;;2.65;;
55633;SDS011;41504;53.162;6.788;2024-03-02T13:57:27;5.10;;;2.38;;
55633;SDS011;41504;53.162;6.788;2024-03-02T13:59:53;6.65;;;2.45;;
55633;SDS011;41504;53.162;6.788;2024-03-02T14:02:19;4.65;;;2.30;;
55633;SDS011;41504;53.162;6.788;2024-03-02T14:04:45;5.72;;;2.50;;
55633;SDS011;41504;53.162;6.788;2024-03-02T14:07:14;5.10;;;2.55;;
55633;SDS011;41504;53.162;6.788;2024-03-02T14:09:40;3.67;;;2.13;;
55633;SDS011;41504;53.162;6.788;2024-03-02T14:12:06;5.20;;;2.45;;
55633;SDS011;41504;53.162;6.788;2024-03-02T14:14:32;5.03;;;2.40;;
55633;SDS011;41504;53.162;6.788;2024-03-02T14:16:58;4.90;;;2.75;;
55633;SDS011;41504;53.162;6.788;2024-03-02T14:19:30;5.40;;;3.00;;
55633;SDS011;41504;53.162;6.788;2024-03-02T14:21:56;6.00;;;3.00;;
55633;SDS011;41504;53.162;6.788;2024-03-02T14:24:25;7.05;;;3.22;;
55633;SDS011;41504;53.162;6.788;2024-03-02T14:26:53;6.80;;;2.90;;
55633;SDS011;41504;53.162;6.788;2024-03-02T14:29:19;5.85;;;2.78;;
55633;SDS011;41504;53.162;6.788;2024-03-02T14:31:45;5.85;;;3.10;;
55633;SDS011;41504;53.162;6.788;2024-03-02T14:34:13;7.05;;;3.08;;
55633;SDS011;41504;53.162;6.788;2024-03-02T14:36:40;6.82;;;3.15;;
55633;SDS011;41504;53.162;6.788;2024-03-02T14:39:08;5.80;;;3.10;;
55633;SDS011;41504;53.162;6.788;2024-03-02T14:41:35;5.85;;;2.80;;
55633;SDS011;41504;53.162;6.788;2024-03-02T14:44:01;6.35;;;3.40;;
55633;SDS011;41504;53.162;6.788;2024-03-02T14:46:27;6.32;;;3.30;;
55633;SDS011;41504;53.162;6.788;2024-03-02T14:48:53;7.07;;;3.25;;
55633;SDS011;41504;53.162;6.788;2024-03-02T14:51:19;6.57;;;3.05;;
55633;SDS011;41504;53.162;6.788;2024-03-02T14:53:44;5.97;;;3.08;;
55633;SDS011;41504;53.162;6.788;2024-03-02T14:56:10;6.82;;;3.08;;
55633;SDS011;41504;53.162;6.788;2024-03-02T14:58:38;5.85;;;3.17;;
55633;SDS011;41504;53.162;6.788;2024-03-02T15:01:04;5.00;;;2.70;;
55633;SDS011;41504;53.162;6.788;2024-03-02T15:03:33;5.32;;;2.85;;
55633;SDS011;41504;53.162;6.788;2024-03-02T15:06:00;5.38;;;2.80;;
55633;SDS011;41504;53.162;6.788;2024-03-02T15:08:27;5.25;;;2.50;;
55633;SDS011;41504;53.162;6.788;2024-03-02T15:10:53;5.95;;;2.83;;